Time;durP1;ratioP1;P1;durP2;ratioP2;P2;SDS_P1;SDS_P2;PMS_P1;PMS_P2;Temp;Humidity;BMP_temperature;BMP_pressure;BME280_temperature;BME280_humidity;BME280_pressure;Samples;Min_cycle;Max_cycle;Signal;HPM_P1;HPM_P2
2022/01/11 00:01:31;;;;;;;44.50;23.95;;;;;;;1.74;100.00;102941.03;5036322;28;20519;-68
2022/01/11 00:03:57;;;;;;;47.47;23.23;;;;;;;1.75;100.00;102942.72;5042199;28;20033;-68
2022/01/11 00:06:35;;;;;;;42.78;22.13;;;;;;;1.83;100.00;102940.84;5043634;28;20494;-68
2022/01/11 00:09:07;;;;;;;48.17;24.05;;;;;;;1.87;100.00;102948.63;5042066;28;20029;-68
2022/01/11 00:11:33;;;;;;;44.85;24.13;;;;;;;1.89;100.00;102955.56;5049637;28;20036;-68
2022/01/11 00:13:58;;;;;;;41.53;22.40;;;;;;;1.90;100.00;102961.81;5057918;28;20040;-68
2022/01/11 00:16:28;;;;;;;41.25;21.75;;;;;;;1.86;100.00;102955.06;5056964;28;20495;-68
2022/01/11 00:18:53;;;;;;;44.40;23.65;;;;;;;1.70;100.00;102959.47;5029264;28;20131;-68
2022/01/11 00:21:19;;;;;;;45.33;23.13;;;;;;;1.64;100.00;102955.59;5062191;28;20119;-68
2022/01/11 00:26:14;;;;;;;44.00;23.50;;;;;;;1.78;100.00;102961.31;5048473;28;20036;-68
2022/01/11 00:28:39;;;;;;;48.20;24.35;;;;;;;1.86;100.00;102964.00;5062281;28;20024;-68
2022/01/11 00:31:07;;;;;;;48.13;25.02;;;;;;;1.74;100.00;102963.53;5045403;28;20379;-69
2022/01/11 00:33:40;;;;;;;48.63;24.05;;;;;;;1.90;100.00;102957.22;5030110;28;20640;-68
2022/01/11 00:36:07;;;;;;;;;;;;;;;1.86;100.00;102963.19;5064900;28;20024;-68
2022/01/11 00:38:36;;;;;;;47.50;22.70;;;;;;;1.95;100.00;102960.28;5062437;28;20206;-68
2022/01/11 00:41:05;;;;;;;44.50;23.45;;;;;;;1.94;100.00;102965.88;5065942;28;20081;-68
2022/01/11 00:43:32;;;;;;;46.08;23.88;;;;;;;2.00;100.00;102973.28;5052962;28;20108;-68
2022/01/11 00:45:58;;;;;;;45.78;24.13;;;;;;;1.80;100.00;102970.97;5042308;28;20025;-68
2022/01/11 00:48:24;;;;;;;51.50;24.55;;;;;;;1.82;100.00;102960.81;5045750;28;20048;-68
2022/01/11 00:50:51;;;;;;;51.42;26.23;;;;;;;1.92;100.00;102965.16;5054303;28;20533;-70
2022/01/11 00:53:18;;;;;;;52.58;26.90;;;;;;;1.99;100.00;102974.31;5043804;28;20029;-68
2022/01/11 00:55:45;;;;;;;55.88;26.65;;;;;;;1.94;100.00;102973.97;5054929;28;20052;-69
2022/01/11 00:58:10;;;;;;;56.95;29.58;;;;;;;1.83;100.00;102969.75;5044437;28;20095;-68
2022/01/11 01:00:37;;;;;;;57.67;29.63;;;;;;;1.89;100.00;102966.38;5044590;28;20032;-69
2022/01/11 01:03:04;;;;;;;58.42;29.73;;;;;;;1.95;100.00;102971.09;5044216;28;20124;-69
2022/01/11 01:05:30;;;;;;;56.33;28.38;;;;;;;2.08;100.00;102975.13;5027937;28;20029;-70
2022/01/11 01:07:56;;;;;;;62.22;30.10;;;;;;;1.80;100.00;102964.69;5044187;28;20345;-69
2022/01/11 01:10:26;;;;;;;65.55;32.50;;;;;;;1.93;100.00;102967.69;5045658;28;20029;-69
2022/01/11 01:12:56;;;;;;;64.25;30.38;;;;;;;1.89;100.00;102962.84;5046615;28;20139;-69
2022/01/11 01:15:23;;;;;;;71.57;33.88;;;;;;;1.94;100.00;102963.16;5063313;28;20024;-69
2022/01/11 01:17:48;;;;;;;71.20;32.67;;;;;;;1.90;100.00;102961.81;5045456;28;20102;-69
2022/01/11 01:20:14;;;;;;;75.63;34.83;;;;;;;1.76;100.00;102966.91;5064215;28;20491;-68
2022/01/11 01:22:39;;;;;;;73.43;33.13;;;;;;;1.77;100.00;102965.03;5060265;28;20048;-69
2022/01/11 01:25:06;;;;;;;71.60;33.33;;;;;;;1.84;100.00;102969.59;5064056;28;20366;-68
2022/01/11 01:27:32;;;;;;;65.88;32.90;;;;;;;1.99;100.00;102961.63;5033995;28;20028;-68
2022/01/11 01:29:58;;;;;;;68.75;32.88;;;;;;;2.13;100.00;102962.78;5058473;28;20391;-68
2022/01/11 01:32:24;;;;;;;73.88;35.25;;;;;;;2.18;100.00;102963.09;5048185;28;20051;-68
2022/01/11 01:34:50;;;;;;;68.15;34.65;;;;;;;2.20;100.00;102962.91;5057428;28;20032;-69
2022/01/11 01:37:16;;;;;;;68.22;33.28;;;;;;;2.11;100.00;102963.94;5036416;28;20033;-67
2022/01/11 01:39:42;;;;;;;69.85;33.90;;;;;;;2.05;100.00;102964.63;5040745;28;20128;-68
2022/01/11 01:42:11;;;;;;;68.03;33.13;;;;;;;2.01;100.00;102974.97;5048102;28;20081;-69
2022/01/11 01:44:41;;;;;;;72.70;32.15;;;;;;;2.08;100.00;102969.72;5050167;28;20082;-69
2022/01/11 01:47:08;;;;;;;64.35;31.45;;;;;;;2.01;100.00;102974.97;5055643;28;20115;-68
2022/01/11 01:49:38;;;;;;;70.85;31.85;;;;;;;2.07;100.00;102973.44;5044705;28;20032;-69
2022/01/11 01:52:04;;;;;;;72.70;34.08;;;;;;;2.15;100.00;102978.84;5011138;28;20106;-68
2022/01/11 01:54:30;;;;;;;67.75;32.67;;;;;;;2.07;100.00;102976.16;5042304;28;20399;-69
2022/01/11 01:56:56;;;;;;;70.72;33.35;;;;;;;2.03;100.00;102970.22;5043533;28;20040;-69
2022/01/11 01:59:21;;;;;;;73.97;33.35;;;;;;;1.93;100.00;102973.13;5047076;28;20470;-68
2022/01/11 02:01:48;;;;;;;73.15;32.70;;;;;;;2.10;100.00;102981.19;5028653;28;20033;-69
2022/01/11 02:04:16;;;;;;;71.38;33.22;;;;;;;1.97;100.00;102973.63;5062866;28;20036;-68
2022/01/11 02:06:42;;;;;;;73.53;33.97;;;;;;;2.09;100.00;102983.06;5061614;28;20403;-68
2022/01/11 02:09:07;;;;;;;72.40;33.58;;;;;;;2.04;100.00;102995.44;5039229;28;20041;-70
2022/01/11 02:11:33;;;;;;;74.50;33.53;;;;;;;2.14;100.00;102986.09;5045353;28;20225;-68
2022/01/11 02:13:59;;;;;;;73.28;32.72;;;;;;;2.24;100.00;102998.59;5041876;28;20033;-68
2022/01/11 02:16:24;;;;;;;75.43;34.72;;;;;;;2.18;100.00;102995.56;5040079;28;20059;-68
2022/01/11 02:18:52;;;;;;;74.47;33.88;;;;;;;2.03;100.00;102991.88;5057852;28;20028;-68
2022/01/11 02:21:18;;;;;;;69.65;32.50;;;;;;;2.00;100.00;103003.03;5054173;28;20040;-67
2022/01/11 02:23:44;;;;;;;69.55;32.35;;;;;;;2.19;100.00;103001.81;5044420;28;20119;-68
2022/01/11 02:26:10;;;;;;;69.93;31.30;;;;;;;2.00;100.00;103006.59;5048460;28;20118;-69
2022/01/11 02:28:35;;;;;;;68.28;31.55;;;;;;;2.09;100.00;103007.41;5054982;28;20155;-68
2022/01/11 02:31:07;;;;;;;72.32;31.33;;;;;;;2.11;100.00;103002.66;5038229;28;20279;-68
2022/01/11 02:33:44;;;;;;;67.67;31.63;;;;;;;2.13;100.00;103010.63;5059519;28;20028;-68
2022/01/11 02:36:21;;;;;;;66.15;29.65;;;;;;;2.02;100.00;102993.75;5062920;28;20024;-68
2022/01/11 02:38:49;;;;;;;62.38;29.85;;;;;;;2.15;100.00;102992.38;5043659;28;20025;-68
2022/01/11 02:41:14;;;;;;;60.17;29.25;;;;;;;2.20;100.00;103001.66;5042947;28;20045;-69
2022/01/11 02:43:48;;;;;;;65.38;30.98;;;;;;;2.38;100.00;103006.00;5029845;28;20049;-68
2022/01/11 02:46:16;;;;;;;61.03;29.02;;;;;;;2.17;100.00;103010.09;5040861;28;20048;-68
2022/01/11 02:48:45;;;;;;;63.20;30.23;;;;;;;2.12;100.00;103007.06;5040211;28;20025;-68
2022/01/11 02:51:11;;;;;;;66.35;31.92;;;;;;;2.17;100.00;103014.69;5041649;28;20052;-68
2022/01/11 02:53:42;;;;;;;69.88;32.15;;;;;;;2.17;100.00;103006.56;5047885;28;20033;-68
2022/01/11 02:56:09;;;;;;;65.55;32.17;;;;;;;2.25;100.00;103009.25;5043672;28;20060;-68
2022/01/11 02:58:35;;;;;;;63.28;30.40;;;;;;;2.29;100.00;103021.41;5052776;28;20048;-68
2022/01/11 03:01:01;;;;;;;62.03;29.45;;;;;;;2.30;100.00;103016.84;5036969;28;20899;-68
2022/01/11 03:03:26;;;;;;;63.35;30.92;;;;;;;2.43;100.00;103017.16;5031805;28;20103;-68
2022/01/11 03:05:57;;;;;;;66.15;32.25;;;;;;;2.34;100.00;103020.91;5044908;28;20036;-68
2022/01/11 03:08:26;;;;;;;62.17;29.70;;;;;;;2.22;100.00;103016.88;5044832;28;20028;-68
2022/01/11 03:10:51;;;;;;;69.95;32.15;;;;;;;2.36;100.00;103022.41;5041020;28;20052;-69
2022/01/11 03:13:19;;;;;;;68.70;32.78;;;;;;;2.47;100.00;103012.22;5040407;28;20420;-69
2022/01/11 03:15:46;;;;;;;66.35;32.20;;;;;;;2.38;100.00;103016.84;5021949;28;20112;-69
2022/01/11 03:18:13;;;;;;;73.35;32.45;;;;;;;2.37;100.00;103018.69;5040888;28;20440;-68
2022/01/11 03:20:40;;;;;;;64.57;30.88;;;;;;;2.28;100.00;103025.16;5042242;28;20032;-68
2022/01/11 03:23:07;;;;;;;64.50;31.13;;;;;;;2.17;100.00;103014.69;5057672;28;20295;-68
2022/01/11 03:25:33;;;;;;;68.40;29.45;;;;;;;2.34;100.00;103020.91;5058638;28;20032;-68
2022/01/11 03:27:59;;;;;;;66.40;31.75;;;;;;;2.38;100.00;103019.53;5050890;28;20079;-67
2022/01/11 03:30:25;;;;;;;69.57;31.77;;;;;;;2.34;100.00;103016.31;5061534;28;20064;-68
2022/01/11 03:32:51;;;;;;;70.38;31.27;;;;;;;2.20;100.00;103007.06;5050049;28;20088;-68
2022/01/11 03:35:17;;;;;;;67.95;32.63;;;;;;;2.29;100.00;103012.44;5057551;28;20033;-68
2022/01/11 03:37:44;;;;;;;67.60;31.55;;;;;;;2.23;100.00;103013.13;5062069;28;20056;-68
2022/01/11 03:40:13;;;;;;;71.15;32.35;;;;;;;2.17;100.00;103012.81;5046248;28;20037;-69
2022/01/11 03:42:41;;;;;;;67.78;31.13;;;;;;;2.27;100.00;103009.91;5041254;28;20067;-67
2022/01/11 03:45:07;;;;;;;69.05;31.67;;;;;;;2.28;100.00;103008.03;5039636;28;20443;-68
2022/01/11 03:47:33;;;;;;;67.00;31.92;;;;;;;2.15;100.00;102995.09;5063059;28;20025;-68
2022/01/11 03:49:59;;;;;;;64.55;31.38;;;;;;;2.14;100.00;102996.09;5050642;28;20094;-68
2022/01/11 03:52:25;;;;;;;69.05;32.55;;;;;;;2.10;100.00;103001.00;5041544;28;20037;-68
2022/01/11 03:57:23;;;;;;;71.18;32.70;;;;;;;1.99;100.00;102988.66;5061184;28;20567;-68
2022/01/11 03:59:49;;;;;;;72.25;33.55;;;;;;;2.08;100.00;102997.59;5054911;28;20328;-69
2022/01/11 04:02:14;;;;;;;72.22;34.22;;;;;;;2.18;100.00;102997.41;5059161;28;20191;-69
2022/01/11 04:04:40;;;;;;;72.25;33.53;;;;;;;2.07;100.00;102995.09;5050882;28;20573;-68
2022/01/11 04:07:06;;;;;;;74.22;32.97;;;;;;;1.95;100.00;102992.75;5048040;28;20462;-68
2022/01/11 04:09:32;;;;;;;77.10;35.60;;;;;;;2.14;100.00;103004.19;5063780;28;20030;-69
2022/01/11 04:11:58;;;;;;;76.97;36.25;;;;;;;2.18;100.00;103011.81;5063687;28;20032;-67
2022/01/11 04:14:25;;;;;;;73.93;34.60;;;;;;;2.24;100.00;103006.72;5060047;28;20032;-68
2022/01/11 04:16:52;;;;;;;81.15;36.90;;;;;;;2.29;100.00;102993.50;5065814;28;20402;-67
2022/01/11 04:19:18;;;;;;;71.40;33.58;;;;;;;2.11;100.00;102999.13;5062757;28;20072;-66
2022/01/11 04:21:44;;;;;;;74.15;34.22;;;;;;;2.16;100.00;102999.47;5067001;28;20052;-67
2022/01/11 04:24:11;;;;;;;72.32;33.10;;;;;;;2.18;100.00;102992.88;5062486;28;20530;-67
2022/01/11 04:26:37;;;;;;;75.47;35.13;;;;;;;2.07;100.00;103004.06;5063490;28;20078;-69
2022/01/11 04:29:02;;;;;;;74.13;35.08;;;;;;;2.02;100.00;103009.13;5060001;28;20125;-67
2022/01/11 04:31:28;;;;;;;70.07;33.75;;;;;;;2.17;100.00;103015.53;5044778;28;20037;-68
2022/01/11 04:33:54;;;;;;;72.53;33.90;;;;;;;2.05;100.00;103010.63;5030854;28;20043;-67
2022/01/11 04:36:23;;;;;;;71.97;33.60;;;;;;;2.05;100.00;103014.22;5027584;28;20040;-68
2022/01/11 04:38:48;;;;;;;70.57;32.83;;;;;;;2.00;100.00;103013.84;5049444;28;20032;-68
2022/01/11 04:41:15;;;;;;;73.60;33.95;;;;;;;2.06;100.00;103021.28;5062118;28;20044;-67
2022/01/11 04:43:40;;;;;;;73.68;33.95;;;;;;;1.87;100.00;103006.28;5062676;28;20199;-68
2022/01/11 04:46:06;;;;;;;67.63;33.42;;;;;;;1.79;100.00;103017.94;5061526;28;20434;-68
2022/01/11 04:48:32;;;;;;;70.18;34.25;;;;;;;1.98;100.00;103019.47;5058729;28;20040;-67
2022/01/11 04:51:04;;;;;;;70.85;33.75;;;;;;;1.86;100.00;103012.69;5063881;28;20104;-67
2022/01/11 04:53:29;;;;;;;68.43;34.13;;;;;;;1.76;100.00;103007.47;5041574;28;20025;-68
2022/01/11 04:55:56;;;;;;;69.68;34.92;;;;;;;1.87;100.00;103002.72;5042210;28;20060;-68
2022/01/11 04:58:22;;;;;;;75.93;35.08;;;;;;;1.88;100.00;103004.41;5045367;28;20132;-68
2022/01/11 05:00:49;;;;;;;66.30;33.55;;;;;;;1.82;100.00;103019.44;5042651;28;20033;-68
2022/01/11 05:03:15;;;;;;;70.72;33.85;;;;;;;1.83;100.00;103004.94;5042558;28;20555;-68
2022/01/11 05:05:41;;;;;;;68.72;32.83;;;;;;;1.89;100.00;103015.06;5044895;28;20073;-67
2022/01/11 05:08:06;;;;;;;69.05;33.85;;;;;;;1.71;100.00;103011.72;5040779;28;20037;-69
2022/01/11 05:10:31;;;;;;;66.45;31.98;;;;;;;1.74;100.00;103004.09;5044976;28;20033;-68
2022/01/11 05:12:58;;;;;;;69.30;33.67;;;;;;;1.70;100.00;103010.00;5040712;28;20478;-69
2022/01/11 05:15:25;;;;;;;65.78;32.13;;;;;;;1.86;100.00;103009.16;5041896;28;20491;-68
2022/01/11 05:17:52;;;;;;;61.80;30.95;;;;;;;1.75;100.00;103010.34;5044249;28;20029;-69
2022/01/11 05:20:19;;;;;;;65.75;33.50;;;;;;;1.68;100.00;103015.59;5025340;28;20300;-67
2022/01/11 05:22:45;;;;;;;67.30;32.78;;;;;;;1.77;100.00;103024.53;5043402;28;20093;-67
2022/01/11 05:25:13;;;;;;;56.05;29.40;;;;;;;1.78;100.00;103023.53;5045971;28;20176;-68
2022/01/11 05:27:40;;;;;;;59.95;31.42;;;;;;;1.78;100.00;103024.38;5062733;28;20150;-68
2022/01/11 05:30:08;;;;;;;63.58;32.78;;;;;;;1.76;100.00;103018.28;5042475;28;20040;-68
2022/01/11 05:32:35;;;;;;;60.55;33.30;;;;;;;1.67;100.00;103027.41;5065264;28;20032;-68
2022/01/11 05:35:05;;;;;;;63.35;31.75;;;;;;;1.58;100.00;103023.88;5044007;28;20036;-68
2022/01/11 05:37:30;;;;;;;58.65;30.38;;;;;;;1.55;100.00;103013.38;5065247;28;20078;-68
2022/01/11 05:39:58;;;;;;;64.28;31.63;;;;;;;1.50;100.00;103018.47;5060706;28;20044;-68
2022/01/11 05:42:26;;;;;;;59.40;30.42;;;;;;;1.71;100.00;103023.38;5044247;28;20060;-68
2022/01/11 05:44:52;;;;;;;58.40;30.55;;;;;;;1.56;100.00;103022.31;5059908;28;20134;-68
2022/01/11 05:47:17;;;;;;;62.00;32.67;;;;;;;1.67;100.00;103022.00;5062810;28;20313;-68
2022/01/11 05:49:43;;;;;;;56.72;31.42;;;;;;;1.70;100.00;103021.66;5045953;28;20048;-68
2022/01/11 05:52:08;;;;;;;61.97;32.10;;;;;;;1.62;100.00;103030.66;5062785;28;20064;-69
2022/01/11 05:54:34;;;;;;;62.42;32.33;;;;;;;1.62;100.00;103030.66;5062974;28;20040;-68
2022/01/11 05:57:00;;;;;;;57.10;31.17;;;;;;;1.73;100.00;103039.41;5064520;28;20056;-68
2022/01/11 05:59:26;;;;;;;63.30;32.20;;;;;;;1.79;100.00;103042.28;5050824;28;20032;-68
2022/01/11 06:01:51;;;;;;;61.25;31.05;;;;;;;1.64;100.00;103044.81;5053755;28;20032;-67
2022/01/11 06:04:17;;;;;;;54.38;29.65;;;;;;;1.64;100.00;103036.72;5060740;28;20036;-68
2022/01/11 06:06:42;;;;;;;58.20;31.73;;;;;;;1.79;100.00;103042.28;5062787;28;20117;-68
2022/01/11 06:09:08;;;;;;;55.03;30.27;;;;;;;1.69;100.00;103038.06;5053474;28;20033;-68
2022/01/11 06:11:33;;;;;;;57.20;29.50;;;;;;;1.71;100.00;103042.28;5027296;28;20063;-68
2022/01/11 06:14:03;;;;;;;55.72;29.65;;;;;;;1.69;100.00;103047.03;5041492;28;20156;-68
2022/01/11 06:16:29;;;;;;;52.10;30.17;;;;;;;1.70;100.00;103042.47;5039833;28;20128;-69
2022/01/11 06:18:54;;;;;;;54.90;29.60;;;;;;;1.62;100.00;103046.00;5041152;28;20434;-68
2022/01/11 06:21:21;;;;;;;52.10;28.08;;;;;;;1.74;100.00;103054.63;5060968;28;20048;-68
2022/01/11 06:23:46;;;;;;;48.63;28.10;;;;;;;1.71;100.00;103045.00;5044108;28;20037;-67
2022/01/11 06:26:14;;;;;;;52.80;30.98;;;;;;;1.69;100.00;103046.16;5043321;28;20036;-68
2022/01/11 06:28:40;;;;;;;49.58;27.50;;;;;;;1.65;100.00;103056.47;5068058;28;20028;-68
2022/01/11 06:31:06;;;;;;;47.58;28.13;;;;;;;1.72;100.00;103062.06;5047125;28;20479;-68
2022/01/11 06:33:32;;;;;;;42.88;26.10;;;;;;;1.61;100.00;103061.38;5041562;28;20041;-69
2022/01/11 06:35:57;;;;;;;47.85;26.27;;;;;;;1.65;100.00;103067.28;5033746;28;20043;-68
2022/01/11 06:38:23;;;;;;;43.97;27.27;;;;;;;1.62;100.00;103068.50;5041885;28;20458;-69
2022/01/11 06:40:48;;;;;;;44.63;26.25;;;;;;;1.58;100.00;103066.28;5027100;28;20125;-67
2022/01/11 06:43:14;;;;;;;44.35;25.88;;;;;;;1.64;100.00;103074.56;5049354;28;20075;-68
2022/01/11 06:45:40;;;;;;;46.97;26.92;;;;;;;1.67;100.00;103076.09;5058487;28;20390;-67
2022/01/11 06:48:06;;;;;;;41.38;25.08;;;;;;;1.61;100.00;103076.78;5056799;28;20028;-67
2022/01/11 06:50:32;;;;;;;41.97;24.90;;;;;;;1.77;100.00;103075.91;5027055;28;20033;-69
2022/01/11 06:52:58;;;;;;;51.17;26.13;;;;;;;1.77;100.00;103071.38;5042623;28;20512;-69
2022/01/11 06:55:23;;;;;;;40.63;24.75;;;;;;;1.73;100.00;103072.72;5040601;28;20379;-68
2022/01/11 06:57:50;;;;;;;41.47;25.70;;;;;;;1.78;100.00;103069.50;5040871;28;20049;-68
2022/01/11 07:00:16;;;;;;;46.22;24.95;;;;;;;1.78;100.00;103061.41;5019796;28;20037;-68
2022/01/11 07:02:41;;;;;;;40.15;24.55;;;;;;;1.78;100.00;103070.34;5042918;28;20475;-68
2022/01/11 07:05:09;;;;;;;42.80;25.40;;;;;;;1.75;100.00;103076.09;5041346;28;20055;-68
2022/01/11 07:07:35;;;;;;;42.25;25.20;;;;;;;1.97;100.00;103085.41;5026701;28;20029;-68
2022/01/11 07:10:00;;;;;;;41.53;24.58;;;;;;;1.87;100.00;103089.28;5039964;28;20082;-68
2022/01/11 07:12:26;;;;;;;40.20;24.42;;;;;;;1.86;100.00;103095.72;5041265;28;20147;-68
2022/01/11 07:14:51;;;;;;;41.45;25.35;;;;;;;1.95;100.00;103100.09;5037987;28;20028;-68
2022/01/11 07:17:17;;;;;;;38.72;23.65;;;;;;;1.89;100.00;103101.63;5025635;28;20124;-68
2022/01/11 07:19:42;;;;;;;40.08;24.00;;;;;;;1.89;100.00;103114.31;5042178;28;20028;-68
2022/01/11 07:22:12;;;;;;;40.00;25.30;;;;;;;1.95;100.00;103111.78;5042953;28;20031;-69
2022/01/11 07:24:37;;;;;;;40.30;22.80;;;;;;;1.75;100.00;103102.28;5042310;28;20020;-68
2022/01/11 07:27:03;;;;;;;42.55;24.30;;;;;;;1.81;100.00;103105.16;5025198;28;20044;-68
2022/01/11 07:29:28;;;;;;;39.05;23.15;;;;;;;1.82;100.00;103112.28;5036597;28;20497;-67
2022/01/11 07:31:54;;;;;;;37.97;23.63;;;;;;;1.90;100.00;103107.88;5028265;28;20056;-69
2022/01/11 07:34:19;;;;;;;36.20;23.00;;;;;;;1.84;100.00;103104.00;5044999;28;20414;-69
2022/01/11 07:36:45;;;;;;;36.80;22.60;;;;;;;1.84;100.00;103098.59;5047485;28;20028;-67
2022/01/11 07:39:14;;;;;;;39.03;23.88;;;;;;;1.76;100.00;103088.59;5046457;28;20091;-69
2022/01/11 07:41:40;;;;;;;38.95;22.55;;;;;;;1.79;100.00;103101.78;5046397;28;20407;-68
2022/01/11 07:44:08;;;;;;;43.38;23.33;;;;;;;1.81;100.00;103105.16;5042207;28;20488;-68
2022/01/11 07:46:34;;;;;;;39.90;22.85;;;;;;;1.75;100.00;103100.44;5043695;28;20148;-67
2022/01/11 07:49:00;;;;;;;38.63;23.20;;;;;;;1.84;100.00;103109.41;5046355;28;20044;-68
2022/01/11 07:51:29;;;;;;;34.28;21.55;;;;;;;1.76;100.00;103106.69;5044092;28;20041;-68
2022/01/11 07:53:55;;;;;;;36.20;22.45;;;;;;;1.82;100.00;103117.69;5047008;28;20060;-68
2022/01/11 07:56:20;;;;;;;35.58;22.40;;;;;;;1.75;100.00;103116.66;5046488;28;20154;-68
2022/01/11 07:58:46;;;;;;;36.00;21.10;;;;;;;1.71;100.00;103118.00;5041848;28;20060;-68
2022/01/11 08:01:15;;;;;;;38.92;21.40;;;;;;;1.67;100.00;103116.66;5043330;28;20063;-68
2022/01/11 08:03:41;;;;;;;31.58;20.50;;;;;;;1.71;100.00;103126.13;5045871;28;20028;-68
2022/01/11 08:06:07;;;;;;;34.13;21.00;;;;;;;1.72;100.00;103129.66;5033291;28;20074;-68
2022/01/11 08:08:32;;;;;;;35.42;20.10;;;;;;;1.61;100.00;103128.16;5066979;28;20051;-68
2022/01/11 08:10:58;;;;;;;36.22;21.20;;;;;;;1.63;100.00;103128.81;5048646;28;20036;-68
2022/01/11 08:13:23;;;;;;;34.40;21.77;;;;;;;1.56;100.00;103128.66;5062544;28;21549;-69
2022/01/11 08:15:50;;;;;;;35.38;20.67;;;;;;;1.57;100.00;103129.47;5064685;28;20447;-68
2022/01/11 08:18:15;;;;;;;32.78;20.05;;;;;;;1.53;100.00;103128.13;5064803;28;20109;-68
2022/01/11 08:20:42;;;;;;;32.33;19.38;;;;;;;1.54;100.00;103130.69;5065488;28;20032;-68
2022/01/11 08:23:07;;;;;;;31.80;19.90;;;;;;;1.56;100.00;103133.19;5066706;28;20573;-68
2022/01/11 08:25:33;;;;;;;34.65;20.70;;;;;;;1.63;100.00;103142.34;5063063;28;20835;-68
2022/01/11 08:27:59;;;;;;;29.10;19.63;;;;;;;1.56;100.00;103123.25;5063184;28;20039;-67
2022/01/11 08:30:25;;;;;;;31.00;19.35;;;;;;;1.65;100.00;103134.91;5046393;28;20149;-69
2022/01/11 08:32:51;;;;;;;33.08;20.33;;;;;;;1.58;100.00;103128.47;5053857;28;20032;-68
2022/01/11 08:35:17;;;;;;;30.10;20.65;;;;;;;1.65;100.00;103138.44;5013612;28;20036;-68
2022/01/11 08:37:43;;;;;;;31.75;20.05;;;;;;;1.66;100.00;103133.91;5045506;28;20167;-68
2022/01/11 08:40:09;;;;;;;30.60;19.30;;;;;;;1.65;100.00;103126.78;5045148;28;20503;-70
2022/01/11 08:42:34;;;;;;;32.45;19.75;;;;;;;1.53;100.00;103137.09;5046022;28;20311;-68
2022/01/11 08:45:00;;;;;;;33.35;20.25;;;;;;;1.64;100.00;103146.72;5023936;28;20403;-67
2022/01/11 08:47:30;;;;;;;31.33;18.77;;;;;;;1.68;100.00;103148.09;5043731;28;20032;-68
2022/01/11 08:49:57;;;;;;;35.15;19.92;;;;;;;1.41;100.00;103152.78;5050026;28;20042;-68
2022/01/11 08:52:23;;;;;;;31.70;19.50;;;;;;;1.65;100.00;103151.97;5046937;28;20033;-69
2022/01/11 08:54:48;;;;;;;34.15;19.10;;;;;;;1.65;100.00;103161.94;5066834;28;20043;-69
2022/01/11 08:57:19;;;;;;;29.58;18.33;;;;;;;1.66;100.00;103166.34;5067141;28;20093;-68
2022/01/11 08:59:44;;;;;;;32.97;19.42;;;;;;;1.73;100.00;103164.66;5043394;28;20032;-68
2022/01/11 09:02:10;;;;;;;29.90;18.90;;;;;;;1.73;100.00;103156.56;5048567;28;20450;-68
2022/01/11 09:04:35;;;;;;;30.25;19.40;;;;;;;1.78;100.00;103164.16;5064277;28;20477;-68
2022/01/11 09:07:01;;;;;;;29.42;19.15;;;;;;;1.82;100.00;103166.38;5066504;28;20029;-68
2022/01/11 09:09:28;;;;;;;29.02;18.67;;;;;;;1.79;100.00;103166.72;5064497;28;20025;-67
2022/01/11 09:11:54;;;;;;;29.27;17.98;;;;;;;1.89;100.00;103166.56;5048702;28;20032;-68
2022/01/11 09:14:20;;;;;;;29.52;18.83;;;;;;;2.00;100.00;103173.50;5047182;28;20446;-68
2022/01/11 09:16:46;;;;;;;28.02;17.58;;;;;;;1.92;100.00;103170.78;5027505;28;20032;-69
2022/01/11 09:19:15;;;;;;;30.45;19.08;;;;;;;2.12;100.00;103179.44;5036219;28;20032;-68
2022/01/11 09:21:43;;;;;;;32.22;20.17;;;;;;;2.12;100.00;103176.72;5061751;28;20263;-69
2022/01/11 09:24:09;;;;;;;29.25;18.45;;;;;;;2.27;100.00;103174.19;5039014;28;20041;-68
2022/01/11 09:26:34;;;;;;;29.40;18.63;;;;;;;2.38;100.00;103173.84;5042521;28;20048;-68
2022/01/11 09:29:00;;;;;;;30.92;18.00;;;;;;;2.43;100.00;103178.75;5036939;28;20479;-68
2022/01/11 09:31:26;;;;;;;29.48;18.10;;;;;;;2.39;100.00;103172.81;5061015;28;20024;-68
2022/01/11 09:33:51;;;;;;;28.52;17.60;;;;;;;2.53;100.00;103165.88;5063994;28;20116;-69
2022/01/11 09:36:17;;;;;;;28.65;18.13;;;;;;;2.74;100.00;103168.91;5065318;28;20028;-69
2022/01/11 09:38:43;;;;;;;29.90;17.98;;;;;;;2.88;100.00;103158.34;5061301;28;20445;-68
2022/01/11 09:41:08;;;;;;;29.90;18.30;;;;;;;3.09;100.00;103160.50;5062588;28;20376;-68
2022/01/11 09:43:34;;;;;;;29.00;17.35;;;;;;;3.19;100.00;103158.41;5051007;28;20135;-69
2022/01/11 09:46:00;;;;;;;29.60;18.00;;;;;;;3.23;100.00;103156.19;5061061;28;20135;-68
2022/01/11 09:48:29;;;;;;;29.05;18.92;;;;;;;3.27;100.00;103150.25;5063356;28;20024;-68
2022/01/11 09:50:56;;;;;;;30.83;17.42;;;;;;;3.32;100.00;103152.44;5063295;28;21497;-69
2022/01/11 09:53:23;;;;;;;29.02;17.70;;;;;;;3.68;100.00;103157.31;5050323;28;20479;-68
2022/01/11 09:55:49;;;;;;;26.85;17.10;;;;;;;3.66;100.00;103151.25;5026062;28;20033;-68
2022/01/11 09:58:15;;;;;;;29.73;17.52;;;;;;;3.64;100.00;103151.41;5039980;28;20049;-68
2022/01/11 10:00:41;;;;;;;26.52;17.23;;;;;;;4.02;100.00;103159.63;5041550;28;20040;-68
2022/01/11 10:03:07;;;;;;;30.00;17.70;;;;;;;4.10;100.00;103163.28;5057495;28;20024;-68
2022/01/11 10:05:35;;;;;;;29.33;16.17;;;;;;;4.28;100.00;103169.28;5053638;28;20031;-68
2022/01/11 10:08:00;;;;;;;25.75;15.82;;;;;;;4.14;100.00;103173.63;5063487;28;20439;-68
2022/01/11 10:10:26;;;;;;;23.50;16.25;;;;;;;4.47;100.00;103173.34;5063298;28;20119;-68
2022/01/11 10:12:58;;;;;;;25.85;16.52;;;;;;;4.51;100.00;103177.38;5061931;28;20107;-68
2022/01/11 10:15:29;;;;;;;31.90;16.90;;;;;;;4.60;100.00;103189.00;5047703;28;20031;-68
2022/01/11 10:18:03;;;;;;;26.05;15.45;;;;;;;4.69;100.00;103187.91;5082470;27;1500152;-68
2022/01/11 10:20:29;;;;;;;24.88;15.57;;;;;;;4.91;100.00;103185.31;5099449;28;20036;-67
2022/01/11 10:23:01;;;;;;;23.27;13.95;;;;;;;5.12;100.00;103193.56;5099534;28;20036;-67
2022/01/11 10:25:40;;;;;;;27.30;15.60;;;;;;;5.18;100.00;103185.66;5116921;28;20027;-68
2022/01/11 10:28:05;;;;;;;23.60;14.00;;;;;;;5.16;100.00;103194.00;5102207;27;20501;-67
2022/01/11 10:30:33;;;;;;;24.92;14.55;;;;;;;5.33;100.00;103189.25;5116227;28;20032;-68
2022/01/11 10:33:01;;;;;;;22.60;14.70;;;;;;;5.24;100.00;103188.47;5121398;27;20130;-68
2022/01/11 10:35:46;;;;;;;25.38;14.23;;;;;;;5.38;100.00;103188.66;5120793;27;20433;-67
2022/01/11 10:38:14;;;;;;;24.23;14.48;;;;;;;5.07;100.00;103193.28;5109904;27;20043;-69
2022/01/11 10:40:42;;;;;;;22.17;13.93;;;;;;;5.24;100.00;103191.19;5114497;28;20323;-68
2022/01/11 10:43:11;;;;;;;23.92;14.32;;;;;;;5.34;100.00;103190.91;5111079;27;20085;-68
2022/01/11 10:45:42;;;;;;;21.85;13.05;;;;;;;5.77;100.00;103192.88;5105918;28;20032;-69
2022/01/11 10:48:13;;;;;;;22.05;13.25;;;;;;;5.57;100.00;103192.66;5121490;28;20540;-68
2022/01/11 10:50:42;;;;;;;20.25;13.60;;;;;;;5.89;100.00;103191.34;5117898;28;20023;-68
2022/01/11 10:53:14;;;;;;;23.02;13.15;;;;;;;5.82;100.00;103182.25;5081096;28;20024;-68
2022/01/11 10:55:41;;;;;;;21.45;13.77;;;;;;;5.67;100.00;103191.34;5099513;28;20074;-67
2022/01/11 10:58:10;;;;;;;21.63;13.48;;;;;;;5.93;100.00;103199.97;5099259;28;20035;-67
2022/01/11 11:00:46;;;;;;;22.23;14.15;;;;;;;6.16;100.00;103192.47;5100578;28;20026;-68
2022/01/11 11:03:17;;;;;;;22.50;14.00;;;;;;;6.25;100.00;103194.06;5120046;28;20031;-68
2022/01/11 11:05:51;;;;;;;22.00;13.32;;;;;;;6.48;100.00;103192.13;5121378;27;20031;-70
2022/01/11 11:08:20;;;;;;;22.77;13.77;;;;;;;6.40;100.00;103190.41;5112748;28;20500;-68
2022/01/11 11:11:02;;;;;;;23.90;13.32;;;;;;;6.11;100.00;103200.41;5119995;28;20030;-68
2022/01/11 11:13:36;;;;;;;22.33;13.27;;;;;;;6.60;100.00;103206.94;5109016;28;20421;-69